sensor_id;sensor_type;location;lat;lon;timestamp;pressure;altitude;pressure_sealevel;temperature;humidity
51249;BME280;39642;47.556;18.728;2022-11-02T00:00:27;100148.28;;;20.75;48.93
51249;BME280;39642;47.556;18.728;2022-11-02T00:02:53;100140.34;;;20.75;48.92
51249;BME280;39642;47.556;18.728;2022-11-02T00:05:19;100152.72;;;20.75;48.91
51249;BME280;39642;47.556;18.728;2022-11-02T00:07:53;100153.56;;;20.75;48.89
51249;BME280;39642;47.556;18.728;2022-11-02T00:10:21;100155.44;;;20.73;48.91
51249;BME280;39642;47.556;18.728;2022-11-02T00:12:47;100155.44;;;20.73;48.90
51249;BME280;39642;47.556;18.728;2022-11-02T00:15:14;100153.75;;;20.72;48.95
51249;BME280;39642;47.556;18.728;2022-11-02T00:17:42;100142.22;;;20.73;48.90
51249;BME280;39642;47.556;18.728;2022-11-02T00:20:10;100143.16;;;20.72;48.90
51249;BME280;39642;47.556;18.728;2022-11-02T00:22:37;100151.09;;;20.72;48.90
51249;BME280;39642;47.556;18.728;2022-11-02T00:25:05;100154.66;;;20.71;48.89
51249;BME280;39642;47.556;18.728;2022-11-02T00:27:33;100158.19;;;20.72;48.87
51249;BME280;39642;47.556;18.728;2022-11-02T00:29:59;100155.53;;;20.72;48.85
51249;BME280;39642;47.556;18.728;2022-11-02T00:32:25;100155.63;;;20.70;48.90
51249;BME280;39642;47.556;18.728;2022-11-02T00:34:52;100159.09;;;20.71;48.85
51249;BME280;39642;47.556;18.728;2022-11-02T00:37:18;100155.63;;;20.70;48.83
51249;BME280;39642;47.556;18.728;2022-11-02T00:39:43;100146.84;;;20.70;48.87
51249;BME280;39642;47.556;18.728;2022-11-02T00:42:09;100150.31;;;20.70;48.93
51249;BME280;39642;47.556;18.728;2022-11-02T00:44:35;100153.03;;;20.69;48.89
51249;BME280;39642;47.556;18.728;2022-11-02T00:47:01;100153.91;;;20.69;48.86
51249;BME280;39642;47.556;18.728;2022-11-02T00:49:27;100150.41;;;20.69;48.90
51249;BME280;39642;47.556;18.728;2022-11-02T00:51:53;100152.19;;;20.68;48.87
51249;BME280;39642;47.556;18.728;2022-11-02T00:54:19;100162.78;;;20.68;48.88
51249;BME280;39642;47.556;18.728;2022-11-02T00:56:45;100157.50;;;20.68;48.86
51249;BME280;39642;47.556;18.728;2022-11-02T00:59:11;100152.25;;;20.67;48.84
51249;BME280;39642;47.556;18.728;2022-11-02T01:01:37;100152.25;;;20.67;48.91
51249;BME280;39642;47.556;18.728;2022-11-02T01:04:03;100160.22;;;20.67;48.87
51249;BME280;39642;47.556;18.728;2022-11-02T01:06:29;100154.91;;;20.67;48.89
51249;BME280;39642;47.556;18.728;2022-11-02T01:08:55;100153.16;;;20.67;48.88
51249;BME280;39642;47.556;18.728;2022-11-02T01:11:22;100147.84;;;20.67;48.86
51249;BME280;39642;47.556;18.728;2022-11-02T01:13:52;100145.28;;;20.66;48.87
51249;BME280;39642;47.556;18.728;2022-11-02T01:16:19;100132.91;;;20.66;48.86
51249;BME280;39642;47.556;18.728;2022-11-02T01:18:45;100136.50;;;20.65;48.86
51249;BME280;39642;47.556;18.728;2022-11-02T01:21:11;100128.56;;;20.65;48.85
51249;BME280;39642;47.556;18.728;2022-11-02T01:23:37;100127.69;;;20.65;48.88
51249;BME280;39642;47.556;18.728;2022-11-02T01:26:04;100120.69;;;20.64;48.81
51249;BME280;39642;47.556;18.728;2022-11-02T01:28:31;100124.19;;;20.64;48.85
51249;BME280;39642;47.556;18.728;2022-11-02T01:30:58;100123.41;;;20.62;48.87
51249;BME280;39642;47.556;18.728;2022-11-02T01:33:25;100134.75;;;20.64;48.86
51249;BME280;39642;47.556;18.728;2022-11-02T01:35:51;100127.78;;;20.63;48.84
51249;BME280;39642;47.556;18.728;2022-11-02T01:38:17;100138.38;;;20.63;48.88
51249;BME280;39642;47.556;18.728;2022-11-02T01:40:43;100119.84;;;20.63;48.86
51249;BME280;39642;47.556;18.728;2022-11-02T01:43:29;100125.13;;;20.63;48.87
51249;BME280;39642;47.556;18.728;2022-11-02T01:46:03;100115.47;;;20.62;48.90
51249;BME280;39642;47.556;18.728;2022-11-02T01:48:36;100119.00;;;20.63;48.89
51249;BME280;39642;47.556;18.728;2022-11-02T01:51:08;100116.34;;;20.63;48.88
51249;BME280;39642;47.556;18.728;2022-11-02T01:53:38;100112.81;;;20.62;48.90
51249;BME280;39642;47.556;18.728;2022-11-02T01:56:05;100123.41;;;20.62;48.87
51249;BME280;39642;47.556;18.728;2022-11-02T01:58:31;100112.81;;;20.62;48.88
51249;BME280;39642;47.556;18.728;2022-11-02T02:01:00;100119.06;;;20.61;48.85
51249;BME280;39642;47.556;18.728;2022-11-02T02:03:28;100124.34;;;20.61;48.87
51249;BME280;39642;47.556;18.728;2022-11-02T02:05:59;100110.28;;;20.61;48.86
51249;BME280;39642;47.556;18.728;2022-11-02T02:08:26;100115.66;;;20.59;48.89
51249;BME280;39642;47.556;18.728;2022-11-02T02:10:56;100112.06;;;20.60;48.87
51249;BME280;39642;47.556;18.728;2022-11-02T02:13:23;100106.75;;;20.60;48.86
51249;BME280;39642;47.556;18.728;2022-11-02T02:16:39;100113.84;;;20.59;48.89
51249;BME280;39642;47.556;18.728;2022-11-02T02:19:00;100111.19;;;20.59;48.89
51249;BME280;39642;47.556;18.728;2022-11-02T02:22:05;100116.59;;;20.58;48.91
51249;BME280;39642;47.556;18.728;2022-11-02T02:30:28;100124.53;;;20.58;48.87
51249;BME280;39642;47.556;18.728;2022-11-02T02:33:04;100127.19;;;20.58;48.91
51249;BME280;39642;47.556;18.728;2022-11-02T02:35:58;100127.19;;;20.58;48.88
51249;BME280;39642;47.556;18.728;2022-11-02T02:38:42;100136.03;;;20.57;48.88
51249;BME280;39642;47.556;18.728;2022-11-02T02:41:24;100138.69;;;20.57;48.88
51249;BME280;39642;47.556;18.728;2022-11-02T02:43:54;100143.97;;;20.57;48.89
51249;BME280;39642;47.556;18.728;2022-11-02T02:46:39;100151.91;;;20.57;48.92
51249;BME280;39642;47.556;18.728;2022-11-02T02:49:11;100150.19;;;20.56;48.92
51249;BME280;39642;47.556;18.728;2022-11-02T02:51:39;100151.91;;;20.57;48.94
51249;BME280;39642;47.556;18.728;2022-11-02T02:54:10;100151.94;;;20.55;48.93
51249;BME280;39642;47.556;18.728;2022-11-02T02:56:43;100162.53;;;20.55;48.93
51249;BME280;39642;47.556;18.728;2022-11-02T02:59:27;100174.00;;;20.56;48.92
51249;BME280;39642;47.556;18.728;2022-11-02T03:01:54;100177.56;;;20.55;48.94
51249;BME280;39642;47.556;18.728;2022-11-02T03:04:20;100186.34;;;20.55;48.93
51249;BME280;39642;47.556;18.728;2022-11-02T03:06:52;100193.44;;;20.55;48.93
51249;BME280;39642;47.556;18.728;2022-11-02T03:12:35;100203.16;;;20.54;48.93
51249;BME280;39642;47.556;18.728;2022-11-02T03:15:10;100199.56;;;20.55;48.97
51249;BME280;39642;47.556;18.728;2022-11-02T03:20:38;100193.44;;;20.55;48.97
51249;BME280;39642;47.556;18.728;2022-11-02T03:31:32;100191.72;;;20.54;48.94
51249;BME280;39642;47.556;18.728;2022-11-02T03:34:23;100199.75;;;20.52;48.96
51249;BME280;39642;47.556;18.728;2022-11-02T03:37:21;100195.41;;;20.51;48.96
51249;BME280;39642;47.556;18.728;2022-11-02T03:39:54;100194.44;;;20.52;48.96
51249;BME280;39642;47.556;18.728;2022-11-02T03:42:25;100189.16;;;20.52;48.98
51249;BME280;39642;47.556;18.728;2022-11-02T03:44:56;100188.31;;;20.52;49.00
51249;BME280;39642;47.556;18.728;2022-11-02T03:47:23;100187.47;;;20.51;49.00
51249;BME280;39642;47.556;18.728;2022-11-02T03:49:52;100186.59;;;20.51;49.00
51249;BME280;39642;47.556;18.728;2022-11-02T03:52:22;100188.31;;;20.52;48.99
51249;BME280;39642;47.556;18.728;2022-11-02T03:57:50;100188.38;;;20.50;49.01
51249;BME280;39642;47.556;18.728;2022-11-02T04:00:18;100185.75;;;20.50;49.01
51249;BME280;39642;47.556;18.728;2022-11-02T04:02:47;100179.59;;;20.50;49.00
51249;BME280;39642;47.556;18.728;2022-11-02T04:05:14;100184.88;;;20.50;49.00
51249;BME280;39642;47.556;18.728;2022-11-02T04:07:43;100184.81;;;20.51;48.99
51249;BME280;39642;47.556;18.728;2022-11-02T04:10:30;100190.19;;;20.50;49.02
51249;BME280;39642;47.556;18.728;2022-11-02T04:12:56;100205.19;;;20.49;49.05
51249;BME280;39642;47.556;18.728;2022-11-02T04:15:40;100206.06;;;20.50;49.05
51249;BME280;39642;47.556;18.728;2022-11-02T04:18:06;100221.06;;;20.49;49.00
51249;BME280;39642;47.556;18.728;2022-11-02T04:20:51;100217.47;;;20.50;49.01
51249;BME280;39642;47.556;18.728;2022-11-02T04:23:17;100218.44;;;20.49;49.04
51249;BME280;39642;47.556;18.728;2022-11-02T04:26:03;100221.06;;;20.49;49.01
51249;BME280;39642;47.556;18.728;2022-11-02T04:28:29;100221.06;;;20.49;49.04
51249;BME280;39642;47.556;18.728;2022-11-02T04:30:57;100230.78;;;20.49;49.04
51249;BME280;39642;47.556;18.728;2022-11-02T04:33:24;100219.28;;;20.50;49.07
51249;BME280;39642;47.556;18.728;2022-11-02T04:36:04;100223.72;;;20.49;49.07
51249;BME280;39642;47.556;18.728;2022-11-02T04:38:31;100217.56;;;20.49;49.05
51249;BME280;39642;47.556;18.728;2022-11-02T04:41:11;100224.63;;;20.48;49.05
51249;BME280;39642;47.556;18.728;2022-11-02T04:43:56;100225.47;;;20.49;49.05
51249;BME280;39642;47.556;18.728;2022-11-02T04:46:24;100224.63;;;20.48;49.07
51249;BME280;39642;47.556;18.728;2022-11-02T04:48:51;100229.09;;;20.48;49.09
51249;BME280;39642;47.556;18.728;2022-11-02T04:51:17;100235.22;;;20.48;49.08
51249;BME280;39642;47.556;18.728;2022-11-02T04:53:46;100244.94;;;20.48;49.07
51249;BME280;39642;47.556;18.728;2022-11-02T04:56:12;100240.50;;;20.48;49.08
51249;BME280;39642;47.556;18.728;2022-11-02T04:58:38;100247.59;;;20.48;49.08
51249;BME280;39642;47.556;18.728;2022-11-02T05:03:31;100234.38;;;20.48;49.07
51249;BME280;39642;47.556;18.728;2022-11-02T05:05:57;100237.97;;;20.47;49.09
51249;BME280;39642;47.556;18.728;2022-11-02T05:08:23;100238.81;;;20.47;49.09
51249;BME280;39642;47.556;18.728;2022-11-02T05:10:53;100244.09;;;20.47;49.10
51249;BME280;39642;47.556;18.728;2022-11-02T05:13:19;100233.53;;;20.47;49.10
51249;BME280;39642;47.556;18.728;2022-11-02T05:15:45;100240.59;;;20.47;49.13
51249;BME280;39642;47.556;18.728;2022-11-02T05:18:11;100234.38;;;20.48;49.18
51249;BME280;39642;47.556;18.728;2022-11-02T05:20:37;100240.50;;;20.48;49.16
51249;BME280;39642;47.556;18.728;2022-11-02T05:23:03;100233.41;;;20.49;49.23
51249;BME280;39642;47.556;18.728;2022-11-02T05:25:31;100232.56;;;20.48;49.20
51249;BME280;39642;47.556;18.728;2022-11-02T05:27:57;100232.44;;;20.51;49.23
51249;BME280;39642;47.556;18.728;2022-11-02T05:30:23;100234.19;;;20.51;49.22
51249;BME280;39642;47.556;18.728;2022-11-02T05:32:48;100240.28;;;20.53;49.20
51249;BME280;39642;47.556;18.728;2022-11-02T05:35:14;100241.06;;;20.55;49.12
51249;BME280;39642;47.556;18.728;2022-11-02T05:37:40;100242.78;;;20.56;49.27
51249;BME280;39642;47.556;18.728;2022-11-02T05:40:06;100240.94;;;20.58;49.21
51249;BME280;39642;47.556;18.728;2022-11-02T05:42:33;100235.66;;;20.58;49.61
51249;BME280;39642;47.556;18.728;2022-11-02T05:44:59;100225.91;;;20.58;51.03
51249;BME280;39642;47.556;18.728;2022-11-02T05:47:25;100217.03;;;20.59;50.95
51249;BME280;39642;47.556;18.728;2022-11-02T05:49:51;100214.31;;;20.61;50.75
51249;BME280;39642;47.556;18.728;2022-11-02T05:52:16;100209.87;;;20.62;50.49
51249;BME280;39642;47.556;18.728;2022-11-02T05:54:42;100203.66;;;20.63;50.41
51249;BME280;39642;47.556;18.728;2022-11-02T05:57:08;100201.88;;;20.63;50.09
51249;BME280;39642;47.556;18.728;2022-11-02T05:59:34;100205.34;;;20.64;50.51
51249;BME280;39642;47.556;18.728;2022-11-02T06:02:00;100204.41;;;20.65;50.83
51249;BME280;39642;47.556;18.728;2022-11-02T06:04:26;100207.84;;;20.67;50.86
51249;BME280;39642;47.556;18.728;2022-11-02T06:06:52;100210.41;;;20.68;50.88
51249;BME280;39642;47.556;18.728;2022-11-02T06:09:18;100205.03;;;20.70;50.77
51249;BME280;39642;47.556;18.728;2022-11-02T06:11:44;100212.81;;;20.73;50.65
51249;BME280;39642;47.556;18.728;2022-11-02T06:14:10;100217.09;;;20.75;50.53
51249;BME280;39642;47.556;18.728;2022-11-02T06:16:35;100224.09;;;20.76;50.69
51249;BME280;39642;47.556;18.728;2022-11-02T06:19:01;100228.38;;;20.79;50.74
51249;BME280;39642;47.556;18.728;2022-11-02T06:21:27;100240.59;;;20.82;50.97
51249;BME280;39642;47.556;18.728;2022-11-02T06:23:53;100238.78;;;20.82;51.83
51249;BME280;39642;47.556;18.728;2022-11-02T06:26:19;100243.16;;;20.83;52.11
51249;BME280;39642;47.556;18.728;2022-11-02T06:28:45;100257.25;;;20.84;52.32
51249;BME280;39642;47.556;18.728;2022-11-02T06:31:11;100253.66;;;20.85;52.80
51249;BME280;39642;47.556;18.728;2022-11-02T06:33:38;100251.78;;;20.87;51.84
51249;BME280;39642;47.556;18.728;2022-11-02T06:36:04;100257.91;;;20.87;52.07
51249;BME280;39642;47.556;18.728;2022-11-02T06:39:00;100266.75;;;20.88;52.35
51249;BME280;39642;47.556;18.728;2022-11-02T06:41:59;100271.25;;;20.86;52.70
51249;BME280;39642;47.556;18.728;2022-11-02T06:44:25;100268.69;;;20.84;52.58
51249;BME280;39642;47.556;18.728;2022-11-02T06:46:51;100273.06;;;20.85;52.83
51249;BME280;39642;47.556;18.728;2022-11-02T06:49:16;100274.81;;;20.85;52.45
51249;BME280;39642;47.556;18.728;2022-11-02T06:51:42;100277.56;;;20.83;52.91
51249;BME280;39642;47.556;18.728;2022-11-02T06:54:08;100275.94;;;20.81;52.80
51249;BME280;39642;47.556;18.728;2022-11-02T06:56:34;100275.84;;;20.82;52.76
51249;BME280;39642;47.556;18.728;2022-11-02T06:59:00;100279.44;;;20.81;52.88
51249;BME280;39642;47.556;18.728;2022-11-02T07:01:26;100283.78;;;20.82;52.75
51249;BME280;39642;47.556;18.728;2022-11-02T07:03:52;100283.78;;;20.82;52.66
51249;BME280;39642;47.556;18.728;2022-11-02T07:06:17;100277.56;;;20.83;52.60
51249;BME280;39642;47.556;18.728;2022-11-02T07:08:43;100278.41;;;20.84;52.55
51249;BME280;39642;47.556;18.728;2022-11-02T07:11:13;100281.00;;;20.85;52.67
51249;BME280;39642;47.556;18.728;2022-11-02T07:13:40;100280.13;;;20.85;52.67
51249;BME280;39642;47.556;18.728;2022-11-02T07:16:06;100290.69;;;20.85;52.39
51249;BME280;39642;47.556;18.728;2022-11-02T07:18:32;100283.66;;;20.85;52.37
51249;BME280;39642;47.556;18.728;2022-11-02T07:20:58;100291.59;;;20.85;52.44
51249;BME280;39642;47.556;18.728;2022-11-02T07:23:24;100296.88;;;20.85;52.62
51249;BME280;39642;47.556;18.728;2022-11-02T07:25:50;100303.94;;;20.85;52.31
51249;BME280;39642;47.556;18.728;2022-11-02T07:28:17;100302.16;;;20.85;52.83
51249;BME280;39642;47.556;18.728;2022-11-02T07:30:43;100305.66;;;20.86;53.22
51249;BME280;39642;47.556;18.728;2022-11-02T07:33:10;100301.28;;;20.85;52.69
51249;BME280;39642;47.556;18.728;2022-11-02T07:35:36;100304.81;;;20.85;52.71
51249;BME280;39642;47.556;18.728;2022-11-02T07:38:04;100297.63;;;20.87;52.88
51249;BME280;39642;47.556;18.728;2022-11-02T07:40:31;100296.78;;;20.87;52.96
51249;BME280;39642;47.556;18.728;2022-11-02T07:42:58;100299.41;;;20.87;52.62
51249;BME280;39642;47.556;18.728;2022-11-02T07:45:24;100298.50;;;20.88;52.76
51249;BME280;39642;47.556;18.728;2022-11-02T07:47:50;100302.84;;;20.89;53.30
51249;BME280;39642;47.556;18.728;2022-11-02T07:50:18;100294.13;;;20.87;53.07
51249;BME280;39642;47.556;18.728;2022-11-02T07:52:46;100304.66;;;20.88;53.44
51249;BME280;39642;47.556;18.728;2022-11-02T07:55:14;100309.88;;;20.90;54.00
51249;BME280;39642;47.556;18.728;2022-11-02T07:57:40;100307.06;;;20.93;55.34
51249;BME280;39642;47.556;18.728;2022-11-02T08:00:11;100305.97;;;20.97;56.44
51249;BME280;39642;47.556;18.728;2022-11-02T08:02:38;100294.97;;;21.05;54.28
51249;BME280;39642;47.556;18.728;2022-11-02T08:05:04;100302.75;;;21.08;54.53
51249;BME280;39642;47.556;18.728;2022-11-02T08:07:30;100306.25;;;21.08;54.60
51249;BME280;39642;47.556;18.728;2022-11-02T08:39:59;100302.38;;;21.65;53.18
51249;BME280;39642;47.556;18.728;2022-11-02T08:42:25;100302.38;;;21.65;53.18
51249;BME280;39642;47.556;18.728;2022-11-02T08:44:51;100296.44;;;21.10;54.04
51249;BME280;39642;47.556;18.728;2022-11-02T08:47:17;100293.94;;;21.07;54.11
51249;BME280;39642;47.556;18.728;2022-11-02T08:49:43;100289.59;;;21.06;54.12
51249;BME280;39642;47.556;18.728;2022-11-02T08:52:09;100289.59;;;21.06;54.11
51249;BME280;39642;47.556;18.728;2022-11-02T08:54:35;100292.47;;;21.02;53.96
51249;BME280;39642;47.556;18.728;2022-11-02T08:57:01;100291.63;;;21.01;53.91
51249;BME280;39642;47.556;18.728;2022-11-02T08:59:27;100294.97;;;21.05;53.88
51249;BME280;39642;47.556;18.728;2022-11-02T09:01:52;100292.31;;;21.05;53.75
51249;BME280;39642;47.556;18.728;2022-11-02T09:04:18;100287.00;;;21.05;53.83
51249;BME280;39642;47.556;18.728;2022-11-02T09:06:44;100281.72;;;21.05;53.88
51249;BME280;39642;47.556;18.728;2022-11-02T09:09:10;100288.63;;;21.07;53.74
51249;BME280;39642;47.556;18.728;2022-11-02T09:11:36;100286.00;;;21.07;53.80
51249;BME280;39642;47.556;18.728;2022-11-02T09:14:02;100279.78;;;21.08;53.70
51249;BME280;39642;47.556;18.728;2022-11-02T09:16:28;100283.19;;;21.10;53.60
51249;BME280;39642;47.556;18.728;2022-11-02T09:18:54;100282.25;;;21.11;53.51
51249;BME280;39642;47.556;18.728;2022-11-02T09:21:20;100282.25;;;21.11;53.44
51249;BME280;39642;47.556;18.728;2022-11-02T09:23:45;100282.25;;;21.11;53.48
51249;BME280;39642;47.556;18.728;2022-11-02T09:26:14;100284.81;;;21.13;53.49
51249;BME280;39642;47.556;18.728;2022-11-02T09:28:40;100286.62;;;21.12;53.39
51249;BME280;39642;47.556;18.728;2022-11-02T09:31:06;100281.16;;;21.15;53.30
51249;BME280;39642;47.556;18.728;2022-11-02T09:33:32;100282.78;;;21.18;53.12
51249;BME280;39642;47.556;18.728;2022-11-02T09:36:03;100278.25;;;21.20;53.09
51249;BME280;39642;47.556;18.728;2022-11-02T09:38:30;100277.16;;;21.24;53.07
51249;BME280;39642;47.556;18.728;2022-11-02T09:41:10;100280.47;;;21.28;52.94
51249;BME280;39642;47.556;18.728;2022-11-02T09:43:59;100279.38;;;21.32;53.23
51249;BME280;39642;47.556;18.728;2022-11-02T09:46:38;100281.97;;;21.33;53.23
51249;BME280;39642;47.556;18.728;2022-11-02T09:49:21;100281.78;;;21.36;54.03
51249;BME280;39642;47.556;18.728;2022-11-02T09:51:57;100280.75;;;21.39;54.01
51249;BME280;39642;47.556;18.728;2022-11-02T09:54:34;100280.75;;;21.39;53.90
51249;BME280;39642;47.556;18.728;2022-11-02T10:16:54;100281.97;;;21.33;54.79
51249;BME280;39642;47.556;18.728;2022-11-02T10:19:22;100275.81;;;21.33;55.35
51249;BME280;39642;47.556;18.728;2022-11-02T10:21:54;100276.75;;;21.32;54.82
51249;BME280;39642;47.556;18.728;2022-11-02T10:24:26;100279.25;;;21.35;54.31
51249;BME280;39642;47.556;18.728;2022-11-02T10:26:58;100277.37;;;21.37;54.46
51249;BME280;39642;47.556;18.728;2022-11-02T10:29:42;100280.75;;;21.39;54.25
51249;BME280;39642;47.556;18.728;2022-11-02T10:32:11;100278.06;;;21.40;54.05
51249;BME280;39642;47.556;18.728;2022-11-02T10:34:38;100272.78;;;21.40;54.74
51249;BME280;39642;47.556;18.728;2022-11-02T10:40:00;100278.84;;;21.42;55.19
51249;BME280;39642;47.556;18.728;2022-11-02T10:48:00;100276.12;;;21.44;55.15
51249;BME280;39642;47.556;18.728;2022-11-02T10:52:53;100264.56;;;21.45;55.18
51249;BME280;39642;47.556;18.728;2022-11-02T10:55:28;100266.59;;;21.40;54.21
51249;BME280;39642;47.556;18.728;2022-11-02T10:57:58;100265.66;;;21.41;54.90
51249;BME280;39642;47.556;18.728;2022-11-02T11:00:34;100274.63;;;21.38;54.75
51249;BME280;39642;47.556;18.728;2022-11-02T11:03:08;100279.00;;;21.39;54.44
51249;BME280;39642;47.556;18.728;2022-11-02T11:05:54;100269.31;;;21.38;54.76
51249;BME280;39642;47.556;18.728;2022-11-02T11:11:17;100272.22;;;21.34;54.93
51249;BME280;39642;47.556;18.728;2022-11-02T11:13:51;100266.06;;;21.33;54.87
51249;BME280;39642;47.556;18.728;2022-11-02T11:16:21;100272.22;;;21.34;55.00
51249;BME280;39642;47.556;18.728;2022-11-02T11:18:55;100261.63;;;21.34;54.73
51249;BME280;39642;47.556;18.728;2022-11-02T11:31:32;100263.59;;;21.30;54.74
51249;BME280;39642;47.556;18.728;2022-11-02T11:34:00;100255.78;;;21.27;54.49
51249;BME280;39642;47.556;18.728;2022-11-02T11:36:32;100249.66;;;21.27;54.30
51249;BME280;39642;47.556;18.728;2022-11-02T11:39:05;100255.78;;;21.27;54.32
51249;BME280;39642;47.556;18.728;2022-11-02T11:41:32;100254.63;;;21.33;55.84
51249;BME280;39642;47.556;18.728;2022-11-02T11:44:00;100241.91;;;21.39;55.56
51249;BME280;39642;47.556;18.728;2022-11-02T11:46:41;100234.97;;;21.37;55.15
51249;BME280;39642;47.556;18.728;2022-11-02T11:49:22;100226.34;;;21.33;54.71
51249;BME280;39642;47.556;18.728;2022-11-02T11:51:51;100226.50;;;21.30;54.91
51249;BME280;39642;47.556;18.728;2022-11-02T11:54:26;100226.59;;;21.29;54.86
51249;BME280;39642;47.556;18.728;2022-11-02T11:59:43;100225.03;;;21.25;54.86
51249;BME280;39642;47.556;18.728;2022-11-02T12:02:36;100219.16;;;21.19;54.70
51249;BME280;39642;47.556;18.728;2022-11-02T12:05:20;100221.94;;;21.16;54.91
51249;BME280;39642;47.556;18.728;2022-11-02T12:13:49;100213.41;;;21.11;54.04
51249;BME280;39642;47.556;18.728;2022-11-02T12:16:40;100205.47;;;21.11;53.74
51249;BME280;39642;47.556;18.728;2022-11-02T12:22:09;100203.13;;;21.05;54.25
51249;BME280;39642;47.556;18.728;2022-11-02T12:33:16;100193.56;;;21.03;54.92
51249;BME280;39642;47.556;18.728;2022-11-02T12:41:18;100185.13;;;21.12;57.48
51249;BME280;39642;47.556;18.728;2022-11-02T12:43:49;100197.00;;;21.20;56.45
51249;BME280;39642;47.556;18.728;2022-11-02T12:51:27;100193.69;;;21.17;55.89
51249;BME280;39642;47.556;18.728;2022-11-02T12:53:57;100189.44;;;21.14;56.10
51249;BME280;39642;47.556;18.728;2022-11-02T12:58:53;100181.62;;;21.11;56.22
51249;BME280;39642;47.556;18.728;2022-11-02T13:01:38;100176.50;;;21.08;56.08
51249;BME280;39642;47.556;18.728;2022-11-02T13:04:38;100179.25;;;21.07;55.26
51249;BME280;39642;47.556;18.728;2022-11-02T13:07:10;100179.25;;;21.07;57.21
51249;BME280;39642;47.556;18.728;2022-11-02T13:12:16;100182.97;;;21.03;56.62
51249;BME280;39642;47.556;18.728;2022-11-02T13:14:45;100182.97;;;21.03;56.90
51249;BME280;39642;47.556;18.728;2022-11-02T13:17:37;100176.84;;;21.02;54.51
51249;BME280;39642;47.556;18.728;2022-11-02T13:23:03;100173.41;;;21.00;54.66
51249;BME280;39642;47.556;18.728;2022-11-02T13:25:38;100175.28;;;20.98;54.79
51249;BME280;39642;47.556;18.728;2022-11-02T13:28:13;100180.75;;;20.95;54.51
51249;BME280;39642;47.556;18.728;2022-11-02T13:30:42;100183.59;;;20.92;56.93
51249;BME280;39642;47.556;18.728;2022-11-02T13:33:20;100179.28;;;20.89;53.95
51249;BME280;39642;47.556;18.728;2022-11-02T13:35:48;100195.09;;;20.91;57.76
51249;BME280;39642;47.556;18.728;2022-11-02T13:41:06;100196.66;;;20.95;56.13
51249;BME280;39642;47.556;18.728;2022-11-02T13:43:58;100193.06;;;20.96;56.84
51249;BME280;39642;47.556;18.728;2022-11-02T13:46:41;100205.38;;;20.97;54.83
51249;BME280;39642;47.556;18.728;2022-11-02T13:49:17;100198.19;;;20.99;55.26
51249;BME280;39642;47.556;18.728;2022-11-02T13:54:18;100202.41;;;21.03;55.23
51249;BME280;39642;47.556;18.728;2022-11-02T13:56:50;100205.88;;;21.04;54.37
51249;BME280;39642;47.556;18.728;2022-11-02T13:59:24;100205.97;;;21.02;55.50
51249;BME280;39642;47.556;18.728;2022-11-02T14:01:54;100206.81;;;21.03;56.81
51249;BME280;39642;47.556;18.728;2022-11-02T14:04:21;100211.19;;;21.04;56.13
51249;BME280;39642;47.556;18.728;2022-11-02T14:09:38;100204.09;;;21.04;57.64
51249;BME280;39642;47.556;18.728;2022-11-02T14:12:38;100210.34;;;21.03;56.40
51249;BME280;39642;47.556;18.728;2022-11-02T14:37:30;100217.56;;;20.99;55.97
51249;BME280;39642;47.556;18.728;2022-11-02T14:48:12;100214.94;;;20.99;55.40
51249;BME280;39642;47.556;18.728;2022-11-02T14:50:42;100214.84;;;21.01;56.39
51249;BME280;39642;47.556;18.728;2022-11-02T14:53:22;100211.44;;;20.99;55.12
51249;BME280;39642;47.556;18.728;2022-11-02T14:55:54;100213.13;;;21.00;55.39
51249;BME280;39642;47.556;18.728;2022-11-02T14:58:32;100206.28;;;20.96;54.68
51249;BME280;39642;47.556;18.728;2022-11-02T15:01:01;100209.97;;;20.93;54.36
51249;BME280;39642;47.556;18.728;2022-11-02T15:03:32;100214.41;;;20.93;55.71
51249;BME280;39642;47.556;18.728;2022-11-02T15:06:02;100214.47;;;20.91;56.42
51249;BME280;39642;47.556;18.728;2022-11-02T15:08:34;100213.03;;;20.86;54.82
51249;BME280;39642;47.556;18.728;2022-11-02T15:19:46;100221.47;;;20.76;58.00
51249;BME280;39642;47.556;18.728;2022-11-02T15:25:08;100226.28;;;20.68;58.90
51249;BME280;39642;47.556;18.728;2022-11-02T15:27:39;100226.34;;;20.67;59.11
51249;BME280;39642;47.556;18.728;2022-11-02T15:30:14;100229.00;;;20.67;58.99
51249;BME280;39642;47.556;18.728;2022-11-02T15:32:53;100236.09;;;20.66;57.97
51249;BME280;39642;47.556;18.728;2022-11-02T15:35:26;100231.56;;;20.68;60.64
51249;BME280;39642;47.556;18.728;2022-11-02T15:37:59;100236.87;;;20.68;58.94
51249;BME280;39642;47.556;18.728;2022-11-02T15:40:33;100232.59;;;20.66;56.57
51249;BME280;39642;47.556;18.728;2022-11-02T15:46:02;100236.94;;;20.67;58.90
51249;BME280;39642;47.556;18.728;2022-11-02T15:51:40;100234.22;;;20.68;57.56
51249;BME280;39642;47.556;18.728;2022-11-02T16:02:20;100243.00;;;20.69;56.39
51249;BME280;39642;47.556;18.728;2022-11-02T16:04:49;100234.22;;;20.68;56.42
51249;BME280;39642;47.556;18.728;2022-11-02T16:07:16;100234.22;;;20.68;56.34
51249;BME280;39642;47.556;18.728;2022-11-02T16:09:43;100237.72;;;20.69;55.64
51249;BME280;39642;47.556;18.728;2022-11-02T16:12:19;100244.88;;;20.67;55.36
51249;BME280;39642;47.556;18.728;2022-11-02T16:14:59;100247.44;;;20.68;55.50
51249;BME280;39642;47.556;18.728;2022-11-02T16:17:29;100250.28;;;20.65;55.10
51249;BME280;39642;47.556;18.728;2022-11-02T16:22:57;100252.91;;;20.65;54.72